This is the latest recevied weather packets stored in our database for station/object IK2ILW-4. If no packets are shown the sender has not sent any weather packets the latest 1 day(s).
| Time | Temp. | Humidity | Pressure | Rain* | Wind** | Luminosity | Snow |
|---|---|---|---|---|---|---|---|
| 1778090561 | 5.56° C | 92% | 1011.1 hPa | 23.62 mm | - | 7 W/m² | - |
| 1778083059 | 7.22° C | 97% | 1009.3 hPa | 16.26 mm | - | 0 W/m² | - |
| 1778082755 | 7.22° C | 97% | 1009.3 hPa | 16.26 mm | - | 0 W/m² | - |
| 1778082150 | 7.22° C | 97% | 1009.4 hPa | 16.26 mm | - | 21 W/m² | - |
| 1778080961 | 7.22° C | 97% | 1009.4 hPa | 16.26 mm | - | 11 W/m² | - |
| 1778080057 | 7.22° C | 97% | 1009.6 hPa | 15.49 mm | - | 23 W/m² | - |
| 1778078865 | 7.78° C | 96% | 1009.7 hPa | 15.49 mm | - | 118 W/m² | - |
| 1778077368 | 7.78° C | 94% | 1009.9 hPa | 15.49 mm | - | 241 W/m² | - |
| 1778076156 | 7.78° C | 92% | 1010.4 hPa | 15.49 mm | - | 176 W/m² | - |
| 1778075855 | 7.78° C | 93% | 1010.4 hPa | 15.24 mm | - | 105 W/m² | - |
| 1778075251 | 7.78° C | 92% | 1010.4 hPa | 15.24 mm | - | 288 W/m² | - |
| 1778074362 | 7.78° C | 92% | 1010.7 hPa | 15.24 mm | - | 209 W/m² | - |
| 1778074060 | 7.78° C | 92% | 1010.7 hPa | 15.24 mm | - | 188 W/m² | - |
| 1778073759 | 7.78° C | 93% | 1010.7 hPa | 15.24 mm | - | 214 W/m² | - |
| 1778073171 | 6.67° C | 97% | 1010.9 hPa | 15.24 mm | - | 309 W/m² | - |
| 1778072867 | 6.67° C | 97% | 1010.9 hPa | 15.24 mm | - | 345 W/m² | - |
| 1778072566 | 6.11° C | 97% | 1010.9 hPa | 15.24 mm | - | 127 W/m² | - |
| 1778071965 | 6.67° C | 97% | 1010.6 hPa | 14.73 mm | - | 81 W/m² | - |
| 1778071664 | 6.67° C | 97% | 1010.6 hPa | 14.48 mm | - | 104 W/m² | - |
| 1778071058 | 6.67° C | 97% | 1010.6 hPa | 14.48 mm | - | 163 W/m² | - |
| 1778070454 | 6.67° C | 96% | 1010.4 hPa | 14.48 mm | - | 39 W/m² | - |
| 1778069866 | 6.67° C | 95% | 1010.4 hPa | 14.48 mm | - | 69 W/m² | - |
| 1778068354 | 6.11° C | 96% | 1010.5 hPa | 14.48 mm | - | 345 W/m² | - |
| 1778068054 | 6.67° C | 96% | 1010.5 hPa | 14.48 mm | - | 306 W/m² | - |
| 1778067770 | 6.67° C | 95% | 1010.4 hPa | 14.48 mm | - | 408 W/m² | - |
* Rain since midnight (hover to see other rain measurements)
** Current wind speed in m/s (hover to see current wind gust speed)